sensor_id;sensor_type;location;lat;lon;timestamp;pressure;altitude;pressure_sealevel;temperature;humidity
45763;BME280;37512;52.408;13.356;2023-12-14T00:01:04;100006.13;;;5.42;88.36
45763;BME280;37512;52.408;13.356;2023-12-14T00:05:11;100007.81;;;5.60;88.01
45763;BME280;37512;52.408;13.356;2023-12-14T00:09:13;100012.94;;;5.53;88.24
45763;BME280;37512;52.408;13.356;2023-12-14T00:13:15;100020.56;;;5.48;87.80
45763;BME280;37512;52.408;13.356;2023-12-14T00:17:16;100029.75;;;5.70;86.38
45763;BME280;37512;52.408;13.356;2023-12-14T00:21:18;100025.41;;;5.53;86.72
45763;BME280;37512;52.408;13.356;2023-12-14T00:25:19;100030.03;;;5.51;87.12
45763;BME280;37512;52.408;13.356;2023-12-14T00:29:21;100035.00;;;5.45;87.35
45763;BME280;37512;52.408;13.356;2023-12-14T00:33:22;100050.50;;;5.58;86.78
45763;BME280;37512;52.408;13.356;2023-12-14T00:37:24;100049.97;;;5.55;87.77
45763;BME280;37512;52.408;13.356;2023-12-14T00:41:26;100056.34;;;5.62;86.79
45763;BME280;37512;52.408;13.356;2023-12-14T00:45:28;100055.94;;;5.49;87.28
45763;BME280;37512;52.408;13.356;2023-12-14T00:49:30;100072.41;;;5.52;87.42
45763;BME280;37512;52.408;13.356;2023-12-14T00:53:31;100067.13;;;5.60;86.62
45763;BME280;37512;52.408;13.356;2023-12-14T00:57:33;100078.69;;;5.43;86.42
45763;BME280;37512;52.408;13.356;2023-12-14T01:01:35;100086.59;;;5.35;86.86
45763;BME280;37512;52.408;13.356;2023-12-14T01:05:36;100097.31;;;5.17;87.33
45763;BME280;37512;52.408;13.356;2023-12-14T01:09:38;100101.94;;;5.15;87.56
45763;BME280;37512;52.408;13.356;2023-12-14T01:13:40;100112.34;;;5.34;86.80
45763;BME280;37512;52.408;13.356;2023-12-14T01:17:41;100125.53;;;5.18;86.84
45763;BME280;37512;52.408;13.356;2023-12-14T01:21:43;100133.31;;;5.11;86.66
45763;BME280;37512;52.408;13.356;2023-12-14T01:25:44;100138.19;;;4.98;87.60
45763;BME280;37512;52.408;13.356;2023-12-14T01:29:46;100141.75;;;5.07;86.48
45763;BME280;37512;52.408;13.356;2023-12-14T01:33:48;100145.00;;;5.01;87.16
45763;BME280;37512;52.408;13.356;2023-12-14T01:37:50;100147.81;;;4.99;87.59
45763;BME280;37512;52.408;13.356;2023-12-14T01:41:51;100154.50;;;5.03;87.16
45763;BME280;37512;52.408;13.356;2023-12-14T01:45:53;100158.72;;;4.88;87.27
45763;BME280;37512;52.408;13.356;2023-12-14T01:49:54;100166.31;;;5.09;86.26
45763;BME280;37512;52.408;13.356;2023-12-14T01:53:56;100162.88;;;4.91;87.24
45763;BME280;37512;52.408;13.356;2023-12-14T01:57:57;100168.81;;;5.10;86.03
45763;BME280;37512;52.408;13.356;2023-12-14T02:01:59;100170.88;;;4.99;86.94
45763;BME280;37512;52.408;13.356;2023-12-14T02:06:01;100180.94;;;5.13;86.30
45763;BME280;37512;52.408;13.356;2023-12-14T02:10:02;100180.34;;;5.01;86.30
45763;BME280;37512;52.408;13.356;2023-12-14T02:14:13;100180.31;;;4.93;86.13
45763;BME280;37512;52.408;13.356;2023-12-14T02:18:15;100180.34;;;5.01;85.51
45763;BME280;37512;52.408;13.356;2023-12-14T02:22:18;100181.31;;;4.74;87.19
45763;BME280;37512;52.408;13.356;2023-12-14T02:26:20;100191.25;;;4.72;86.78
45763;BME280;37512;52.408;13.356;2023-12-14T02:30:21;100186.09;;;4.71;86.81
45763;BME280;37512;52.408;13.356;2023-12-14T02:34:23;100194.28;;;4.77;86.47
45763;BME280;37512;52.408;13.356;2023-12-14T02:38:26;100195.44;;;4.57;86.08
45763;BME280;37512;52.408;13.356;2023-12-14T02:42:27;100201.63;;;4.48;86.75
45763;BME280;37512;52.408;13.356;2023-12-14T02:46:29;100202.31;;;4.50;87.33
45763;BME280;37512;52.408;13.356;2023-12-14T02:50:30;100207.25;;;4.45;86.65
45763;BME280;37512;52.408;13.356;2023-12-14T02:54:32;100210.38;;;4.58;86.54
45763;BME280;37512;52.408;13.356;2023-12-14T02:58:33;100214.38;;;4.44;87.10
45763;BME280;37512;52.408;13.356;2023-12-14T03:02:35;100232.56;;;4.57;86.21
45763;BME280;37512;52.408;13.356;2023-12-14T03:06:37;100225.44;;;4.58;86.07
45763;BME280;37512;52.408;13.356;2023-12-14T03:10:39;100232.31;;;4.50;85.95
45763;BME280;37512;52.408;13.356;2023-12-14T03:14:40;100241.44;;;4.48;86.66
45763;BME280;37512;52.408;13.356;2023-12-14T03:18:42;100249.78;;;4.53;86.29
45763;BME280;37512;52.408;13.356;2023-12-14T03:22:44;100243.72;;;4.61;85.25
45763;BME280;37512;52.408;13.356;2023-12-14T03:26:45;100262.06;;;4.54;86.57
45763;BME280;37512;52.408;13.356;2023-12-14T03:30:47;100266.97;;;4.49;86.49
45763;BME280;37512;52.408;13.356;2023-12-14T03:34:49;100261.97;;;4.46;86.68
45763;BME280;37512;52.408;13.356;2023-12-14T03:38:51;100269.41;;;4.42;87.15
45763;BME280;37512;52.408;13.356;2023-12-14T03:42:53;100273.19;;;4.40;86.65
45763;BME280;37512;52.408;13.356;2023-12-14T03:46:54;100291.53;;;4.51;85.83
45763;BME280;37512;52.408;13.356;2023-12-14T03:50:57;100286.19;;;4.61;85.89
45763;BME280;37512;52.408;13.356;2023-12-14T03:54:58;100297.69;;;4.51;86.41
45763;BME280;37512;52.408;13.356;2023-12-14T03:59:03;100308.00;;;4.54;86.72
45763;BME280;37512;52.408;13.356;2023-12-14T04:03:05;100315.22;;;4.62;85.37
45763;BME280;37512;52.408;13.356;2023-12-14T04:07:06;100318.06;;;4.51;85.84
45763;BME280;37512;52.408;13.356;2023-12-14T04:11:08;100320.97;;;4.58;86.09
45763;BME280;37512;52.408;13.356;2023-12-14T04:15:10;100315.28;;;4.52;85.89
45763;BME280;37512;52.408;13.356;2023-12-14T04:19:11;100324.38;;;4.68;85.37
45763;BME280;37512;52.408;13.356;2023-12-14T04:23:13;100334.09;;;4.59;86.15
45763;BME280;37512;52.408;13.356;2023-12-14T04:27:15;100334.63;;;4.63;84.86
45763;BME280;37512;52.408;13.356;2023-12-14T04:31:16;100334.84;;;4.51;85.41
45763;BME280;37512;52.408;13.356;2023-12-14T04:35:18;100344.06;;;4.47;85.42
45763;BME280;37512;52.408;13.356;2023-12-14T04:39:20;100348.81;;;4.53;86.21
45763;BME280;37512;52.408;13.356;2023-12-14T04:43:21;100350.78;;;4.51;85.90
45763;BME280;37512;52.408;13.356;2023-12-14T04:47:23;100352.63;;;4.41;86.07
45763;BME280;37512;52.408;13.356;2023-12-14T04:51:25;100350.50;;;4.45;86.72
45763;BME280;37512;52.408;13.356;2023-12-14T04:55:27;100354.81;;;4.46;86.49
45763;BME280;37512;52.408;13.356;2023-12-14T04:59:29;100365.13;;;4.49;86.48
45763;BME280;37512;52.408;13.356;2023-12-14T05:03:31;100372.75;;;4.62;86.13
45763;BME280;37512;52.408;13.356;2023-12-14T05:07:32;100378.25;;;4.50;85.84
45763;BME280;37512;52.408;13.356;2023-12-14T05:11:34;100384.28;;;4.52;86.50
45763;BME280;37512;52.408;13.356;2023-12-14T05:15:35;100396.16;;;4.48;86.21
45763;BME280;37512;52.408;13.356;2023-12-14T05:19:37;100400.22;;;4.43;86.50
45763;BME280;37512;52.408;13.356;2023-12-14T05:23:39;100411.66;;;4.43;86.21
45763;BME280;37512;52.408;13.356;2023-12-14T05:27:41;100419.09;;;4.40;85.89
45763;BME280;37512;52.408;13.356;2023-12-14T05:31:42;100429.88;;;4.29;87.08
45763;BME280;37512;52.408;13.356;2023-12-14T05:35:44;100439.03;;;4.44;86.08
45763;BME280;37512;52.408;13.356;2023-12-14T05:39:46;100445.19;;;4.44;87.00
45763;BME280;37512;52.408;13.356;2023-12-14T05:43:47;100450.25;;;4.38;86.91
45763;BME280;37512;52.408;13.356;2023-12-14T05:47:49;100458.75;;;4.41;86.96
45763;BME280;37512;52.408;13.356;2023-12-14T05:51:50;100466.09;;;4.47;87.17
45763;BME280;37512;52.408;13.356;2023-12-14T05:55:52;100471.75;;;4.35;87.37
45763;BME280;37512;52.408;13.356;2023-12-14T05:59:54;100479.81;;;4.33;86.91
45763;BME280;37512;52.408;13.356;2023-12-14T06:03:55;100479.44;;;4.28;88.57
45763;BME280;37512;52.408;13.356;2023-12-14T06:07:57;100481.72;;;4.50;87.17
45763;BME280;37512;52.408;13.356;2023-12-14T06:12:02;100484.97;;;4.44;87.83
45763;BME280;37512;52.408;13.356;2023-12-14T06:16:04;100494.88;;;4.52;86.70
45763;BME280;37512;52.408;13.356;2023-12-14T06:20:06;100496.06;;;4.67;85.73
45763;BME280;37512;52.408;13.356;2023-12-14T06:24:11;100507.03;;;4.54;86.98
45763;BME280;37512;52.408;13.356;2023-12-14T06:28:13;100503.19;;;4.67;85.94
45763;BME280;37512;52.408;13.356;2023-12-14T06:32:14;100521.66;;;4.59;86.21
45763;BME280;37512;52.408;13.356;2023-12-14T06:36:20;100513.81;;;4.67;86.13
45763;BME280;37512;52.408;13.356;2023-12-14T06:40:22;100516.19;;;4.70;85.92
45763;BME280;37512;52.408;13.356;2023-12-14T06:44:24;100527.91;;;4.67;85.43
45763;BME280;37512;52.408;13.356;2023-12-14T06:48:27;100538.44;;;4.59;85.86
45763;BME280;37512;52.408;13.356;2023-12-14T06:52:29;100536.63;;;4.50;85.77
45763;BME280;37512;52.408;13.356;2023-12-14T06:56:30;100542.91;;;4.49;85.18
45763;BME280;37512;52.408;13.356;2023-12-14T07:00:32;100562.19;;;4.51;85.85
45763;BME280;37512;52.408;13.356;2023-12-14T07:04:34;100567.91;;;4.56;85.64
45763;BME280;37512;52.408;13.356;2023-12-14T07:08:35;100576.31;;;4.51;85.15
45763;BME280;37512;52.408;13.356;2023-12-14T07:12:37;100583.53;;;4.59;85.47
45763;BME280;37512;52.408;13.356;2023-12-14T07:16:38;100590.63;;;4.68;84.59
45763;BME280;37512;52.408;13.356;2023-12-14T07:20:40;100604.34;;;4.64;84.55
45763;BME280;37512;52.408;13.356;2023-12-14T07:24:42;100612.03;;;4.57;84.25
45763;BME280;37512;52.408;13.356;2023-12-14T07:28:53;100623.94;;;4.53;83.97
45763;BME280;37512;52.408;13.356;2023-12-14T07:32:55;100631.31;;;4.69;84.31
45763;BME280;37512;52.408;13.356;2023-12-14T07:36:57;100645.28;;;4.71;83.24
45763;BME280;37512;52.408;13.356;2023-12-14T07:40:58;100657.97;;;4.67;83.96
45763;BME280;37512;52.408;13.356;2023-12-14T07:45:00;100651.13;;;4.65;83.60
45763;BME280;37512;52.408;13.356;2023-12-14T07:49:01;100659.38;;;4.71;82.97
45763;BME280;37512;52.408;13.356;2023-12-14T07:53:03;100659.38;;;4.62;84.47
45763;BME280;37512;52.408;13.356;2023-12-14T07:57:04;100666.09;;;4.75;83.57
45763;BME280;37512;52.408;13.356;2023-12-14T08:01:06;100673.06;;;4.86;83.51
45763;BME280;37512;52.408;13.356;2023-12-14T08:05:08;100683.53;;;4.88;83.56
45763;BME280;37512;52.408;13.356;2023-12-14T08:09:13;100683.94;;;4.83;83.17
45763;BME280;37512;52.408;13.356;2023-12-14T08:13:15;100675.03;;;4.65;84.24
45763;BME280;37512;52.408;13.356;2023-12-14T08:17:17;100688.13;;;4.85;83.04
45763;BME280;37512;52.408;13.356;2023-12-14T08:21:19;100703.09;;;4.67;83.95
45763;BME280;37512;52.408;13.356;2023-12-14T08:25:21;100707.00;;;4.63;84.16
45763;BME280;37512;52.408;13.356;2023-12-14T08:29:25;100719.19;;;4.75;84.52
45763;BME280;37512;52.408;13.356;2023-12-14T08:33:26;100716.50;;;4.85;83.94
45763;BME280;37512;52.408;13.356;2023-12-14T08:37:28;100721.97;;;4.74;83.11
45763;BME280;37512;52.408;13.356;2023-12-14T08:41:30;100729.66;;;4.87;82.87
45763;BME280;37512;52.408;13.356;2023-12-14T08:45:32;100741.53;;;4.92;82.74
45763;BME280;37512;52.408;13.356;2023-12-14T08:49:33;100751.47;;;4.71;83.01
45763;BME280;37512;52.408;13.356;2023-12-14T08:53:35;100751.88;;;4.95;81.97
45763;BME280;37512;52.408;13.356;2023-12-14T08:57:39;100766.81;;;4.96;81.99
45763;BME280;37512;52.408;13.356;2023-12-14T09:01:50;100776.88;;;4.83;82.26
45763;BME280;37512;52.408;13.356;2023-12-14T09:05:51;100773.94;;;4.76;82.45
45763;BME280;37512;52.408;13.356;2023-12-14T09:09:54;100777.44;;;4.77;83.16
45763;BME280;37512;52.408;13.356;2023-12-14T09:13:55;100789.31;;;4.92;82.41
45763;BME280;37512;52.408;13.356;2023-12-14T09:17:57;100802.03;;;4.89;82.88
45763;BME280;37512;52.408;13.356;2023-12-14T09:21:58;100804.25;;;5.03;82.40
45763;BME280;37512;52.408;13.356;2023-12-14T09:26:00;100806.25;;;5.10;81.56
45763;BME280;37512;52.408;13.356;2023-12-14T09:30:02;100811.38;;;5.02;82.76
45763;BME280;37512;52.408;13.356;2023-12-14T09:34:04;100822.00;;;5.02;81.88
45763;BME280;37512;52.408;13.356;2023-12-14T09:38:06;100823.00;;;5.11;80.67
45763;BME280;37512;52.408;13.356;2023-12-14T09:42:09;100831.66;;;4.94;82.27
45763;BME280;37512;52.408;13.356;2023-12-14T09:46:11;100835.88;;;5.06;81.42
45763;BME280;37512;52.408;13.356;2023-12-14T09:50:14;100845.66;;;4.96;81.38
45763;BME280;37512;52.408;13.356;2023-12-14T09:54:17;100843.28;;;4.93;83.13
45763;BME280;37512;52.408;13.356;2023-12-14T09:58:20;100857.53;;;4.92;83.46
45763;BME280;37512;52.408;13.356;2023-12-14T10:02:26;100849.44;;;5.22;84.09
45763;BME280;37512;52.408;13.356;2023-12-14T10:06:31;100856.13;;;5.65;81.59
45763;BME280;37512;52.408;13.356;2023-12-14T10:10:33;100861.56;;;5.63;81.02
45763;BME280;37512;52.408;13.356;2023-12-14T10:14:36;100857.91;;;5.84;78.61
45763;BME280;37512;52.408;13.356;2023-12-14T10:18:42;100862.91;;;5.87;78.06
45763;BME280;37512;52.408;13.356;2023-12-14T10:22:44;100871.09;;;5.75;77.69
45763;BME280;37512;52.408;13.356;2023-12-14T10:26:46;100876.22;;;5.87;78.96
45763;BME280;37512;52.408;13.356;2023-12-14T10:30:48;100868.69;;;5.82;77.96
45763;BME280;37512;52.408;13.356;2023-12-14T10:34:50;100872.91;;;5.75;78.05
45763;BME280;37512;52.408;13.356;2023-12-14T10:38:53;100888.31;;;5.62;78.06
45763;BME280;37512;52.408;13.356;2023-12-14T10:43:02;100893.88;;;5.78;77.39
45763;BME280;37512;52.408;13.356;2023-12-14T10:47:07;100901.31;;;5.55;78.92
45763;BME280;37512;52.408;13.356;2023-12-14T10:51:13;100908.31;;;5.47;79.01
45763;BME280;37512;52.408;13.356;2023-12-14T10:55:29;100908.44;;;5.45;77.40
45763;BME280;37512;52.408;13.356;2023-12-14T10:59:32;100909.00;;;5.29;77.72
45763;BME280;37512;52.408;13.356;2023-12-14T11:03:35;100917.50;;;5.04;78.69
45763;BME280;37512;52.408;13.356;2023-12-14T11:12:06;100925.50;;;5.23;79.23
45763;BME280;37512;52.408;13.356;2023-12-14T11:16:10;100928.16;;;5.23;79.95
45763;BME280;37512;52.408;13.356;2023-12-14T11:20:24;100919.44;;;5.02;80.42
45763;BME280;37512;52.408;13.356;2023-12-14T11:24:26;100932.91;;;5.10;79.98
45763;BME280;37512;52.408;13.356;2023-12-14T11:28:37;100926.06;;;5.27;79.75
45763;BME280;37512;52.408;13.356;2023-12-14T11:32:40;100936.53;;;5.09;80.10
45763;BME280;37512;52.408;13.356;2023-12-14T11:36:42;100940.16;;;5.18;79.03
45763;BME280;37512;52.408;13.356;2023-12-14T11:40:45;100945.78;;;5.24;79.98
45763;BME280;37512;52.408;13.356;2023-12-14T11:44:55;100942.81;;;5.08;79.96
45763;BME280;37512;52.408;13.356;2023-12-14T11:48:58;100957.22;;;5.05;80.52
45763;BME280;37512;52.408;13.356;2023-12-14T11:53:00;100960.19;;;5.22;79.28
45763;BME280;37512;52.408;13.356;2023-12-14T11:57:05;100963.41;;;5.35;78.64
45763;BME280;37512;52.408;13.356;2023-12-14T12:01:13;100974.09;;;4.95;79.02
45763;BME280;37512;52.408;13.356;2023-12-14T12:05:17;100990.28;;;4.92;79.38
45763;BME280;37512;52.408;13.356;2023-12-14T12:09:42;101001.69;;;5.13;78.75
45763;BME280;37512;52.408;13.356;2023-12-14T12:13:57;100991.22;;;5.31;78.15
45763;BME280;37512;52.408;13.356;2023-12-14T12:18:05;100998.78;;;5.35;77.97
45763;BME280;37512;52.408;13.356;2023-12-14T12:22:08;100997.91;;;5.06;78.79
45763;BME280;37512;52.408;13.356;2023-12-14T12:26:09;101000.38;;;4.67;80.54
45763;BME280;37512;52.408;13.356;2023-12-14T12:30:11;101001.13;;;4.79;81.34
45763;BME280;37512;52.408;13.356;2023-12-14T12:34:23;101003.09;;;5.17;80.42
45763;BME280;37512;52.408;13.356;2023-12-14T12:38:25;101006.34;;;5.21;79.69
45763;BME280;37512;52.408;13.356;2023-12-14T12:42:41;101014.13;;;5.12;80.18
45763;BME280;37512;52.408;13.356;2023-12-14T12:46:56;101020.56;;;5.20;78.82
45763;BME280;37512;52.408;13.356;2023-12-14T12:51:14;101029.69;;;5.27;79.06
45763;BME280;37512;52.408;13.356;2023-12-14T12:55:30;101032.44;;;5.15;78.35
45763;BME280;37512;52.408;13.356;2023-12-14T12:59:46;101032.47;;;5.25;78.94
45763;BME280;37512;52.408;13.356;2023-12-14T13:04:01;101038.91;;;5.32;78.70
45763;BME280;37512;52.408;13.356;2023-12-14T13:08:19;101046.75;;;5.24;78.07
45763;BME280;37512;52.408;13.356;2023-12-14T13:12:40;101057.50;;;5.23;77.77
45763;BME280;37512;52.408;13.356;2023-12-14T13:16:56;101058.34;;;5.23;78.58
45763;BME280;37512;52.408;13.356;2023-12-14T13:21:13;101062.28;;;5.29;79.13
45763;BME280;37512;52.408;13.356;2023-12-14T13:25:16;101070.16;;;5.40;77.58
45763;BME280;37512;52.408;13.356;2023-12-14T13:29:18;101061.84;;;5.24;78.29
45763;BME280;37512;52.408;13.356;2023-12-14T13:33:20;101079.34;;;5.36;77.23
45763;BME280;37512;52.408;13.356;2023-12-14T13:37:21;101082.81;;;5.27;77.77
45763;BME280;37512;52.408;13.356;2023-12-14T13:41:24;101090.81;;;5.36;77.39
45763;BME280;37512;52.408;13.356;2023-12-14T13:45:26;101089.97;;;5.36;77.91
45763;BME280;37512;52.408;13.356;2023-12-14T13:49:33;101104.97;;;5.06;78.50
45763;BME280;37512;52.408;13.356;2023-12-14T13:53:48;101107.91;;;5.03;78.97
45763;BME280;37512;52.408;13.356;2023-12-14T13:58:00;101127.81;;;5.19;78.07
45763;BME280;37512;52.408;13.356;2023-12-14T14:02:03;101135.41;;;5.23;78.10
45763;BME280;37512;52.408;13.356;2023-12-14T14:06:05;101147.13;;;5.21;77.43
45763;BME280;37512;52.408;13.356;2023-12-14T14:10:11;101151.28;;;5.13;77.84
45763;BME280;37512;52.408;13.356;2023-12-14T14:14:13;101165.38;;;5.04;78.93
45763;BME280;37512;52.408;13.356;2023-12-14T14:18:15;101154.16;;;4.80;79.31
45763;BME280;37512;52.408;13.356;2023-12-14T14:22:19;101177.06;;;5.02;78.68
45763;BME280;37512;52.408;13.356;2023-12-14T14:26:26;101182.31;;;5.13;78.26
45763;BME280;37512;52.408;13.356;2023-12-14T14:30:30;101185.25;;;4.89;78.62
45763;BME280;37512;52.408;13.356;2023-12-14T14:34:32;101194.44;;;4.85;79.68
45763;BME280;37512;52.408;13.356;2023-12-14T14:38:34;101199.69;;;4.96;79.40
45763;BME280;37512;52.408;13.356;2023-12-14T14:42:44;101214.38;;;5.00;79.72
45763;BME280;37512;52.408;13.356;2023-12-14T14:46:45;101211.53;;;4.92;79.67
45763;BME280;37512;52.408;13.356;2023-12-14T14:50:49;101220.47;;;4.91;78.97
45763;BME280;37512;52.408;13.356;2023-12-14T14:54:51;101231.56;;;4.96;79.18
45763;BME280;37512;52.408;13.356;2023-12-14T14:58:53;101247.66;;;4.83;79.19
45763;BME280;37512;52.408;13.356;2023-12-14T15:02:55;101254.28;;;4.89;78.56
45763;BME280;37512;52.408;13.356;2023-12-14T15:06:56;101263.13;;;4.78;79.26
45763;BME280;37512;52.408;13.356;2023-12-14T15:10:58;101261.66;;;4.85;78.41
45763;BME280;37512;52.408;13.356;2023-12-14T15:15:00;101264.97;;;4.67;79.62
45763;BME280;37512;52.408;13.356;2023-12-14T15:19:02;101272.06;;;4.77;80.17
45763;BME280;37512;52.408;13.356;2023-12-14T15:23:07;101265.19;;;4.86;79.98
45763;BME280;37512;52.408;13.356;2023-12-14T15:27:09;101272.78;;;4.79;80.20
45763;BME280;37512;52.408;13.356;2023-12-14T15:31:11;101285.16;;;4.69;80.34
45763;BME280;37512;52.408;13.356;2023-12-14T15:35:13;101303.63;;;4.71;80.49
45763;BME280;37512;52.408;13.356;2023-12-14T15:39:15;101312.75;;;4.67;79.90
45763;BME280;37512;52.408;13.356;2023-12-14T15:43:16;101308.84;;;4.93;78.83
45763;BME280;37512;52.408;13.356;2023-12-14T15:47:18;101322.13;;;4.82;78.52
45763;BME280;37512;52.408;13.356;2023-12-14T15:51:21;101337.34;;;4.91;78.77
45763;BME280;37512;52.408;13.356;2023-12-14T15:55:23;101334.53;;;4.93;78.16
45763;BME280;37512;52.408;13.356;2023-12-14T15:59:29;101350.03;;;4.88;78.16
45763;BME280;37512;52.408;13.356;2023-12-14T16:03:33;101362.56;;;4.85;78.99
45763;BME280;37512;52.408;13.356;2023-12-14T16:07:38;101355.63;;;5.05;78.29
45763;BME280;37512;52.408;13.356;2023-12-14T16:11:42;101366.09;;;4.86;78.19
45763;BME280;37512;52.408;13.356;2023-12-14T16:15:46;101364.56;;;4.50;79.45
45763;BME280;37512;52.408;13.356;2023-12-14T16:19:47;101368.94;;;4.29;81.97
45763;BME280;37512;52.408;13.356;2023-12-14T16:23:52;101375.72;;;4.87;79.50
45763;BME280;37512;52.408;13.356;2023-12-14T16:27:53;101374.84;;;4.21;80.82
45763;BME280;37512;52.408;13.356;2023-12-14T16:31:55;101388.88;;;4.89;79.03
45763;BME280;37512;52.408;13.356;2023-12-14T16:35:57;101389.72;;;4.89;79.21
45763;BME280;37512;52.408;13.356;2023-12-14T16:39:59;101384.22;;;4.70;79.18
45763;BME280;37512;52.408;13.356;2023-12-14T16:44:01;101401.97;;;4.69;79.63
45763;BME280;37512;52.408;13.356;2023-12-14T16:48:04;101414.91;;;4.51;80.86
45763;BME280;37512;52.408;13.356;2023-12-14T16:52:08;101418.94;;;4.67;80.87
45763;BME280;37512;52.408;13.356;2023-12-14T16:56:27;101425.94;;;4.90;78.80
45763;BME280;37512;52.408;13.356;2023-12-14T17:00:30;101427.94;;;5.09;77.76
45763;BME280;37512;52.408;13.356;2023-12-14T17:04:32;101431.84;;;4.82;79.25
45763;BME280;37512;52.408;13.356;2023-12-14T17:08:34;101437.44;;;4.46;81.53
45763;BME280;37512;52.408;13.356;2023-12-14T17:12:36;101442.13;;;4.87;79.41
45763;BME280;37512;52.408;13.356;2023-12-14T17:16:40;101443.19;;;4.96;78.92
45763;BME280;37512;52.408;13.356;2023-12-14T17:20:43;101441.63;;;4.93;78.10
45763;BME280;37512;52.408;13.356;2023-12-14T17:24:48;101462.88;;;4.82;78.11
45763;BME280;37512;52.408;13.356;2023-12-14T17:28:57;101477.63;;;4.86;77.32
45763;BME280;37512;52.408;13.356;2023-12-14T17:33:00;101474.59;;;4.79;78.39
45763;BME280;37512;52.408;13.356;2023-12-14T17:37:06;101495.09;;;4.44;79.37
45763;BME280;37512;52.408;13.356;2023-12-14T17:41:09;101508.59;;;4.41;79.72
45763;BME280;37512;52.408;13.356;2023-12-14T17:45:13;101504.63;;;4.91;77.74
45763;BME280;37512;52.408;13.356;2023-12-14T17:49:14;101503.41;;;4.95;77.35
45763;BME280;37512;52.408;13.356;2023-12-14T17:53:16;101508.84;;;4.49;78.56
45763;BME280;37512;52.408;13.356;2023-12-14T17:57:18;101505.50;;;4.69;77.32
45763;BME280;37512;52.408;13.356;2023-12-14T18:01:20;101504.41;;;4.61;76.95
45763;BME280;37512;52.408;13.356;2023-12-14T18:05:22;101515.88;;;4.72;77.04
45763;BME280;37512;52.408;13.356;2023-12-14T18:09:25;101525.88;;;4.58;77.38
45763;BME280;37512;52.408;13.356;2023-12-14T18:13:30;101535.88;;;4.65;75.81
45763;BME280;37512;52.408;13.356;2023-12-14T18:17:32;101552.28;;;4.48;75.69
45763;BME280;37512;52.408;13.356;2023-12-14T18:21:35;101552.19;;;4.61;75.64
45763;BME280;37512;52.408;13.356;2023-12-14T18:25:37;101561.81;;;4.62;75.50
45763;BME280;37512;52.408;13.356;2023-12-14T18:29:38;101556.91;;;4.91;75.11
45763;BME280;37512;52.408;13.356;2023-12-14T18:33:40;101561.38;;;4.79;75.67
45763;BME280;37512;52.408;13.356;2023-12-14T18:37:41;101579.22;;;4.54;75.53
45763;BME280;37512;52.408;13.356;2023-12-14T18:41:44;101591.38;;;4.57;77.06
45763;BME280;37512;52.408;13.356;2023-12-14T18:45:45;101602.28;;;4.76;74.23
45763;BME280;37512;52.408;13.356;2023-12-14T18:49:47;101593.50;;;4.87;73.21
45763;BME280;37512;52.408;13.356;2023-12-14T18:53:50;101606.25;;;4.82;73.52
45763;BME280;37512;52.408;13.356;2023-12-14T18:57:52;101620.09;;;4.63;73.70
45763;BME280;37512;52.408;13.356;2023-12-14T19:01:55;101625.28;;;4.65;73.88
45763;BME280;37512;52.408;13.356;2023-12-14T19:05:57;101639.16;;;4.22;75.01
45763;BME280;37512;52.408;13.356;2023-12-14T19:09:59;101641.66;;;4.47;75.05
45763;BME280;37512;52.408;13.356;2023-12-14T19:14:03;101645.19;;;4.24;75.64
45763;BME280;37512;52.408;13.356;2023-12-14T19:18:05;101655.78;;;4.48;75.19
45763;BME280;37512;52.408;13.356;2023-12-14T19:22:07;101649.72;;;4.70;73.01
45763;BME280;37512;52.408;13.356;2023-12-14T19:26:26;101660.38;;;4.22;75.22
45763;BME280;37512;52.408;13.356;2023-12-14T19:30:28;101659.91;;;4.17;76.10
45763;BME280;37512;52.408;13.356;2023-12-14T19:34:30;101672.22;;;4.29;76.28
45763;BME280;37512;52.408;13.356;2023-12-14T19:38:33;101670.53;;;4.28;76.23
45763;BME280;37512;52.408;13.356;2023-12-14T19:42:40;101680.06;;;4.54;75.07
45763;BME280;37512;52.408;13.356;2023-12-14T19:46:45;101677.66;;;4.51;75.39
45763;BME280;37512;52.408;13.356;2023-12-14T19:50:49;101684.72;;;4.75;74.12
45763;BME280;37512;52.408;13.356;2023-12-14T19:54:51;101683.34;;;4.58;75.61
45763;BME280;37512;52.408;13.356;2023-12-14T19:58:55;101696.06;;;4.42;75.77
45763;BME280;37512;52.408;13.356;2023-12-14T20:02:56;101710.56;;;4.25;75.96
45763;BME280;37512;52.408;13.356;2023-12-14T20:06:59;101716.50;;;4.29;76.39
45763;BME280;37512;52.408;13.356;2023-12-14T20:11:02;101726.75;;;4.33;76.12
45763;BME280;37512;52.408;13.356;2023-12-14T20:15:04;101738.19;;;3.86;77.85
45763;BME280;37512;52.408;13.356;2023-12-14T20:19:05;101742.19;;;4.28;76.64
45763;BME280;37512;52.408;13.356;2023-12-14T20:23:10;101746.19;;;4.34;75.66
45763;BME280;37512;52.408;13.356;2023-12-14T20:27:13;101737.72;;;4.29;76.13
45763;BME280;37512;52.408;13.356;2023-12-14T20:31:16;101742.59;;;4.35;76.46
45763;BME280;37512;52.408;13.356;2023-12-14T20:35:18;101734.09;;;4.30;76.71
45763;BME280;37512;52.408;13.356;2023-12-14T20:39:20;101737.84;;;4.27;76.85
45763;BME280;37512;52.408;13.356;2023-12-14T20:43:22;101750.50;;;4.11;77.26
45763;BME280;37512;52.408;13.356;2023-12-14T20:47:23;101761.38;;;3.95;77.10
45763;BME280;37512;52.408;13.356;2023-12-14T20:51:25;101767.97;;;3.77;78.19
45763;BME280;37512;52.408;13.356;2023-12-14T20:55:27;101781.56;;;3.72;77.64
45763;BME280;37512;52.408;13.356;2023-12-14T20:59:28;101791.88;;;4.13;76.94
45763;BME280;37512;52.408;13.356;2023-12-14T21:03:30;101787.81;;;4.57;74.08
45763;BME280;37512;52.408;13.356;2023-12-14T21:07:32;101794.88;;;3.96;77.44
45763;BME280;37512;52.408;13.356;2023-12-14T21:11:35;101789.63;;;3.83;77.81
45763;BME280;37512;52.408;13.356;2023-12-14T21:15:37;101799.88;;;4.01;78.27